This is the latest recevied weather packets stored in our database for station/object F5NTS. If no packets are shown the sender has not sent any weather packets the latest 10 day(s).
| Time | Temp. | Humidity | Pressure | Rain* | Wind** | Luminosity | Snow |
|---|---|---|---|---|---|---|---|
| 1777893604 | 17.78° C | 88% | 1010 hPa | 0 mm | - | - | - |
| 1777893004 | 17.22° C | 87% | 1010 hPa | 0 mm | - | - | - |
| 1777889704 | 18.33° C | 93% | 1010 hPa | 0 mm | - | - | - |
| 1777889104 | 18.33° C | 93% | 1010.1 hPa | 0 mm | - | - | - |
| 1777885204 | 16.67° C | 95% | 1010.1 hPa | 0 mm | - | - | - |
| 1777883704 | 15.56° C | 95% | 1010 hPa | 0 mm | - | - | - |
| 1777882204 | 15° C | 95% | 1009.9 hPa | 0 mm | - | - | - |
| 1777880104 | 14.44° C | 95% | 1009.7 hPa | 0 mm | - | - | - |
| 1777878904 | 14.44° C | 95% | 1009.8 hPa | 0 mm | - | - | - |
| 1777878604 | 14.44° C | 95% | 1009.5 hPa | 0 mm | - | - | - |
| 1777876205 | 13.89° C | 95% | 1009.2 hPa | 0 mm | - | - | - |
| 1777875304 | 13.89° C | 95% | 1009.2 hPa | 0 mm | - | - | - |
| 1777872004 | 12.78° C | 95% | 1008.9 hPa | 0 mm | - | - | - |
| 1777870204 | 11.67° C | 95% | 1008.7 hPa | 0 mm | - | - | - |
| 1777869304 | 11.67° C | 95% | 1008.6 hPa | 0 mm | - | - | - |
| 1777868404 | 11.67° C | 95% | 1008.5 hPa | 0 mm | - | - | - |
| 1777865405 | 12.78° C | 95% | 1008.6 hPa | 0 mm | - | - | - |
| 1777865104 | 12.78° C | 95% | 1008.7 hPa | 0 mm | - | - | - |
| 1777863904 | 12.78° C | 95% | 1008.8 hPa | 0 mm | - | - | - |
| 1777855504 | 12.22° C | 95% | 1008.3 hPa | 0 mm | - | - | - |
| 1777850704 | 12.78° C | 95% | 1008.5 hPa | 0 mm | - | - | - |
| 1777848904 | 12.78° C | 95% | 1008.4 hPa | 1.02 mm | - | - | - |
| 1777844705 | 13.33° C | 94% | 1008.5 hPa | 7.37 mm | - | - | - |
| 1777844404 | 13.89° C | 95% | 1008.5 hPa | 6.35 mm | - | - | - |
| 1777843804 | 14.44° C | 95% | 1008.5 hPa | 3.05 mm | - | - | - |
* Rain latest hour (hover to see other rain measurements)
** Current wind speed in m/s (hover to see current wind gust speed)